CheckWX is a tool to help pilots better visualize weather data.  It is not intended as a substitute for an official pre-flight weather briefing.

01:03:02 UTC

CYYL METAR
Lynn Lake Airport
Lynn Lake, Canada
Current

1 hour ago

CYYL 240000Z AUTO 01009KT 9SM CLR M11/M19 A3049 RMK SLP358
Observed
Mar-24 @ 00:00 UTC
Wind
  • 010° at 9 KTS
Visibility
9 SM
Flight Rules
VFR
Cloud Levels
  • Clear skies
Temperature
-11°C / 12°F
Dewpoint
-19°C / -2°F
Humidity
52%
Altimeter
30.49" Hg
Pressure
1035.8 hPa
Previous

2 hours ago

CYYL 232300Z AUTO 01009G16KT 340V060 9SM CLR M10/M18 A3047 RMK SLP348
Observed
Mar-23 @ 23:00 UTC
Wind
  • 010° at 9 KTS
  • Gusting to 16 KTS
Visibility
9 SM
Flight Rules
VFR
Cloud Levels
  • Clear skies
Temperature
-10°C / 14°F
Dewpoint
-18°C / -0°F
Humidity
52%
Altimeter
30.47" Hg
Pressure
1034.8 hPa
Previous

3 hours ago

CYYL 232200Z AUTO 02009G15KT 9SM CLR M09/M17 A3044 RMK SLP337
Observed
Mar-23 @ 22:00 UTC
Wind
  • 020° at 9 KTS
  • Gusting to 15 KTS
Visibility
9 SM
Flight Rules
VFR
Cloud Levels
  • Clear skies
Temperature
-9°C / 16°F
Dewpoint
-17°C / 1°F
Humidity
53%
Altimeter
30.44" Hg
Pressure
1033.7 hPa